sensor_id;sensor_type;location;lat;lon;timestamp;P1;durP1;ratioP1;P2;durP2;ratioP2
77018;SDS011;66044;53.142;17.962;2023-07-31T00:01:24;5.90;;;1.40;;
77018;SDS011;66044;53.142;17.962;2023-07-31T00:03:50;4.90;;;1.50;;
77018;SDS011;66044;53.142;17.962;2023-07-31T00:06:16;5.70;;;1.60;;
77018;SDS011;66044;53.142;17.962;2023-07-31T00:08:43;4.80;;;1.60;;
77018;SDS011;66044;53.142;17.962;2023-07-31T00:11:09;5.70;;;1.50;;
77018;SDS011;66044;53.142;17.962;2023-07-31T00:13:36;5.20;;;1.70;;
77018;SDS011;66044;53.142;17.962;2023-07-31T00:16:02;4.10;;;1.40;;
77018;SDS011;66044;53.142;17.962;2023-07-31T00:18:29;4.50;;;1.50;;
77018;SDS011;66044;53.142;17.962;2023-07-31T00:20:55;5.30;;;1.50;;
77018;SDS011;66044;53.142;17.962;2023-07-31T00:23:21;5.90;;;1.90;;
77018;SDS011;66044;53.142;17.962;2023-07-31T00:25:48;6.50;;;1.40;;
77018;SDS011;66044;53.142;17.962;2023-07-31T00:28:14;6.20;;;1.60;;
77018;SDS011;66044;53.142;17.962;2023-07-31T00:30:41;4.30;;;1.40;;
77018;SDS011;66044;53.142;17.962;2023-07-31T00:33:07;6.30;;;1.80;;
77018;SDS011;66044;53.142;17.962;2023-07-31T00:35:33;4.80;;;1.60;;
77018;SDS011;66044;53.142;17.962;2023-07-31T00:38:00;4.40;;;1.40;;
77018;SDS011;66044;53.142;17.962;2023-07-31T00:40:26;5.10;;;1.60;;
77018;SDS011;66044;53.142;17.962;2023-07-31T00:42:53;5.00;;;1.30;;
77018;SDS011;66044;53.142;17.962;2023-07-31T00:45:19;4.30;;;1.30;;
77018;SDS011;66044;53.142;17.962;2023-07-31T00:47:49;4.80;;;1.50;;
77018;SDS011;66044;53.142;17.962;2023-07-31T00:50:15;4.20;;;1.40;;
77018;SDS011;66044;53.142;17.962;2023-07-31T00:52:43;5.50;;;1.80;;
77018;SDS011;66044;53.142;17.962;2023-07-31T00:55:09;4.90;;;1.50;;
77018;SDS011;66044;53.142;17.962;2023-07-31T00:57:36;4.10;;;1.30;;
77018;SDS011;66044;53.142;17.962;2023-07-31T01:00:04;5.40;;;1.80;;
77018;SDS011;66044;53.142;17.962;2023-07-31T01:02:31;6.30;;;2.10;;
77018;SDS011;66044;53.142;17.962;2023-07-31T01:04:58;5.30;;;1.60;;
77018;SDS011;66044;53.142;17.962;2023-07-31T01:07:49;5.20;;;1.70;;
77018;SDS011;66044;53.142;17.962;2023-07-31T01:10:20;5.60;;;1.60;;
77018;SDS011;66044;53.142;17.962;2023-07-31T01:12:51;5.20;;;1.90;;
77018;SDS011;66044;53.142;17.962;2023-07-31T01:15:20;6.50;;;1.60;;
77018;SDS011;66044;53.142;17.962;2023-07-31T01:17:47;6.30;;;1.60;;
77018;SDS011;66044;53.142;17.962;2023-07-31T01:20:14;5.60;;;1.60;;
77018;SDS011;66044;53.142;17.962;2023-07-31T01:25:32;5.90;;;1.60;;
77018;SDS011;66044;53.142;17.962;2023-07-31T01:28:10;4.70;;;1.40;;
77018;SDS011;66044;53.142;17.962;2023-07-31T01:30:44;5.40;;;1.70;;
77018;SDS011;66044;53.142;17.962;2023-07-31T01:33:15;7.80;;;1.70;;
77018;SDS011;66044;53.142;17.962;2023-07-31T01:35:43;4.90;;;1.60;;
77018;SDS011;66044;53.142;17.962;2023-07-31T01:38:11;5.70;;;1.70;;
77018;SDS011;66044;53.142;17.962;2023-07-31T01:40:41;6.60;;;2.20;;
77018;SDS011;66044;53.142;17.962;2023-07-31T01:43:08;5.20;;;1.90;;
77018;SDS011;66044;53.142;17.962;2023-07-31T01:45:35;5.30;;;1.80;;
77018;SDS011;66044;53.142;17.962;2023-07-31T01:48:01;5.70;;;1.70;;
77018;SDS011;66044;53.142;17.962;2023-07-31T01:50:27;5.20;;;1.70;;
77018;SDS011;66044;53.142;17.962;2023-07-31T01:52:54;6.80;;;1.90;;
77018;SDS011;66044;53.142;17.962;2023-07-31T01:55:20;6.40;;;1.80;;
77018;SDS011;66044;53.142;17.962;2023-07-31T01:57:46;4.90;;;1.80;;
77018;SDS011;66044;53.142;17.962;2023-07-31T02:00:14;4.60;;;1.60;;
77018;SDS011;66044;53.142;17.962;2023-07-31T02:02:41;5.70;;;1.60;;
77018;SDS011;66044;53.142;17.962;2023-07-31T02:05:08;5.10;;;1.60;;
77018;SDS011;66044;53.142;17.962;2023-07-31T02:07:34;4.90;;;1.60;;
77018;SDS011;66044;53.142;17.962;2023-07-31T02:10:00;5.90;;;1.70;;
77018;SDS011;66044;53.142;17.962;2023-07-31T02:12:27;6.50;;;1.60;;
77018;SDS011;66044;53.142;17.962;2023-07-31T02:14:56;4.60;;;1.50;;
77018;SDS011;66044;53.142;17.962;2023-07-31T02:17:23;4.90;;;1.70;;
77018;SDS011;66044;53.142;17.962;2023-07-31T02:19:49;5.70;;;1.70;;
77018;SDS011;66044;53.142;17.962;2023-07-31T02:22:15;6.60;;;1.70;;
77018;SDS011;66044;53.142;17.962;2023-07-31T02:24:42;6.30;;;1.40;;
77018;SDS011;66044;53.142;17.962;2023-07-31T02:27:08;4.80;;;1.60;;
77018;SDS011;66044;53.142;17.962;2023-07-31T02:29:35;5.20;;;1.70;;
77018;SDS011;66044;53.142;17.962;2023-07-31T02:32:01;6.60;;;1.90;;
77018;SDS011;66044;53.142;17.962;2023-07-31T02:34:28;5.20;;;1.40;;
77018;SDS011;66044;53.142;17.962;2023-07-31T02:36:54;6.20;;;1.60;;
77018;SDS011;66044;53.142;17.962;2023-07-31T02:39:20;5.10;;;1.80;;
77018;SDS011;66044;53.142;17.962;2023-07-31T02:41:47;4.80;;;1.60;;
77018;SDS011;66044;53.142;17.962;2023-07-31T02:44:14;5.50;;;1.70;;
77018;SDS011;66044;53.142;17.962;2023-07-31T02:46:40;4.50;;;1.50;;
77018;SDS011;66044;53.142;17.962;2023-07-31T02:49:07;5.60;;;1.80;;
77018;SDS011;66044;53.142;17.962;2023-07-31T02:51:33;6.00;;;1.90;;
77018;SDS011;66044;53.142;17.962;2023-07-31T02:53:59;4.90;;;1.50;;
77018;SDS011;66044;53.142;17.962;2023-07-31T02:56:26;6.60;;;1.50;;
77018;SDS011;66044;53.142;17.962;2023-07-31T02:58:52;5.00;;;1.70;;
77018;SDS011;66044;53.142;17.962;2023-07-31T03:01:19;4.50;;;1.50;;
77018;SDS011;66044;53.142;17.962;2023-07-31T03:03:45;5.40;;;1.80;;
77018;SDS011;66044;53.142;17.962;2023-07-31T03:06:11;5.40;;;1.80;;
77018;SDS011;66044;53.142;17.962;2023-07-31T03:08:38;6.10;;;1.80;;
77018;SDS011;66044;53.142;17.962;2023-07-31T03:11:04;5.90;;;2.10;;
77018;SDS011;66044;53.142;17.962;2023-07-31T03:13:31;5.50;;;1.90;;
77018;SDS011;66044;53.142;17.962;2023-07-31T03:15:57;5.00;;;1.70;;
77018;SDS011;66044;53.142;17.962;2023-07-31T03:18:23;7.00;;;2.40;;
77018;SDS011;66044;53.142;17.962;2023-07-31T03:20:50;6.00;;;1.70;;
77018;SDS011;66044;53.142;17.962;2023-07-31T03:23:16;4.70;;;1.80;;
77018;SDS011;66044;53.142;17.962;2023-07-31T03:25:58;5.60;;;1.70;;
77018;SDS011;66044;53.142;17.962;2023-07-31T03:28:26;5.80;;;1.90;;
77018;SDS011;66044;53.142;17.962;2023-07-31T03:30:53;6.60;;;1.90;;
77018;SDS011;66044;53.142;17.962;2023-07-31T03:33:19;5.80;;;1.70;;
77018;SDS011;66044;53.142;17.962;2023-07-31T03:35:45;6.40;;;1.80;;
77018;SDS011;66044;53.142;17.962;2023-07-31T03:38:12;6.40;;;1.90;;
77018;SDS011;66044;53.142;17.962;2023-07-31T03:40:39;7.30;;;2.00;;
77018;SDS011;66044;53.142;17.962;2023-07-31T03:43:06;4.90;;;1.50;;
77018;SDS011;66044;53.142;17.962;2023-07-31T03:45:32;5.00;;;1.60;;
77018;SDS011;66044;53.142;17.962;2023-07-31T03:47:58;6.30;;;1.80;;
77018;SDS011;66044;53.142;17.962;2023-07-31T03:50:25;5.30;;;1.70;;
77018;SDS011;66044;53.142;17.962;2023-07-31T03:52:52;5.70;;;1.90;;
77018;SDS011;66044;53.142;17.962;2023-07-31T03:55:18;5.00;;;1.90;;
77018;SDS011;66044;53.142;17.962;2023-07-31T03:57:45;5.50;;;1.70;;
77018;SDS011;66044;53.142;17.962;2023-07-31T04:00:11;6.10;;;1.90;;
77018;SDS011;66044;53.142;17.962;2023-07-31T04:02:38;7.30;;;2.00;;
77018;SDS011;66044;53.142;17.962;2023-07-31T04:05:05;5.40;;;1.80;;
77018;SDS011;66044;53.142;17.962;2023-07-31T04:07:32;5.10;;;1.60;;
77018;SDS011;66044;53.142;17.962;2023-07-31T04:09:59;9.10;;;1.80;;
77018;SDS011;66044;53.142;17.962;2023-07-31T04:12:26;6.50;;;1.90;;
77018;SDS011;66044;53.142;17.962;2023-07-31T04:14:52;5.30;;;1.50;;
77018;SDS011;66044;53.142;17.962;2023-07-31T04:17:19;6.30;;;1.80;;
77018;SDS011;66044;53.142;17.962;2023-07-31T04:19:45;5.90;;;1.60;;
77018;SDS011;66044;53.142;17.962;2023-07-31T04:22:11;7.10;;;1.50;;
77018;SDS011;66044;53.142;17.962;2023-07-31T04:24:38;5.50;;;1.80;;
77018;SDS011;66044;53.142;17.962;2023-07-31T04:27:05;7.10;;;1.70;;
77018;SDS011;66044;53.142;17.962;2023-07-31T04:29:31;5.50;;;1.70;;
77018;SDS011;66044;53.142;17.962;2023-07-31T04:31:57;5.90;;;1.60;;
77018;SDS011;66044;53.142;17.962;2023-07-31T04:34:24;5.60;;;1.40;;
77018;SDS011;66044;53.142;17.962;2023-07-31T04:36:50;5.10;;;1.60;;
77018;SDS011;66044;53.142;17.962;2023-07-31T04:39:17;5.40;;;1.30;;
77018;SDS011;66044;53.142;17.962;2023-07-31T04:41:43;4.80;;;1.30;;
77018;SDS011;66044;53.142;17.962;2023-07-31T04:44:09;4.90;;;1.60;;
77018;SDS011;66044;53.142;17.962;2023-07-31T04:46:37;8.40;;;1.80;;
77018;SDS011;66044;53.142;17.962;2023-07-31T04:49:03;5.60;;;1.60;;
77018;SDS011;66044;53.142;17.962;2023-07-31T04:51:30;6.40;;;1.30;;
77018;SDS011;66044;53.142;17.962;2023-07-31T04:53:56;4.60;;;1.40;;
77018;SDS011;66044;53.142;17.962;2023-07-31T04:56:23;5.60;;;1.20;;
77018;SDS011;66044;53.142;17.962;2023-07-31T04:58:49;4.50;;;1.40;;
77018;SDS011;66044;53.142;17.962;2023-07-31T05:01:16;4.90;;;1.20;;
77018;SDS011;66044;53.142;17.962;2023-07-31T05:03:42;4.70;;;1.10;;
77018;SDS011;66044;53.142;17.962;2023-07-31T05:06:08;5.70;;;1.30;;
77018;SDS011;66044;53.142;17.962;2023-07-31T05:08:35;7.00;;;1.10;;
77018;SDS011;66044;53.142;17.962;2023-07-31T05:11:02;4.30;;;1.00;;
77018;SDS011;66044;53.142;17.962;2023-07-31T05:13:28;5.40;;;0.90;;
77018;SDS011;66044;53.142;17.962;2023-07-31T05:15:54;5.10;;;1.20;;
77018;SDS011;66044;53.142;17.962;2023-07-31T05:18:21;5.20;;;1.00;;
77018;SDS011;66044;53.142;17.962;2023-07-31T05:20:47;5.20;;;0.90;;
77018;SDS011;66044;53.142;17.962;2023-07-31T05:23:14;7.00;;;1.10;;
77018;SDS011;66044;53.142;17.962;2023-07-31T05:25:41;4.80;;;1.10;;
77018;SDS011;66044;53.142;17.962;2023-07-31T05:28:07;5.90;;;1.60;;
77018;SDS011;66044;53.142;17.962;2023-07-31T05:30:34;5.30;;;1.30;;
77018;SDS011;66044;53.142;17.962;2023-07-31T05:33:00;4.10;;;1.00;;
77018;SDS011;66044;53.142;17.962;2023-07-31T05:35:27;4.80;;;1.10;;
77018;SDS011;66044;53.142;17.962;2023-07-31T05:37:53;3.70;;;1.00;;
77018;SDS011;66044;53.142;17.962;2023-07-31T05:40:20;5.20;;;0.90;;
77018;SDS011;66044;53.142;17.962;2023-07-31T05:42:46;4.80;;;1.00;;
77018;SDS011;66044;53.142;17.962;2023-07-31T05:45:13;4.00;;;0.90;;
77018;SDS011;66044;53.142;17.962;2023-07-31T05:47:39;4.80;;;0.80;;
77018;SDS011;66044;53.142;17.962;2023-07-31T05:50:07;4.70;;;0.80;;
77018;SDS011;66044;53.142;17.962;2023-07-31T05:52:34;6.60;;;1.00;;
77018;SDS011;66044;53.142;17.962;2023-07-31T05:55:00;3.90;;;0.80;;
77018;SDS011;66044;53.142;17.962;2023-07-31T05:57:27;5.60;;;1.40;;
77018;SDS011;66044;53.142;17.962;2023-07-31T05:59:54;4.20;;;0.70;;
77018;SDS011;66044;53.142;17.962;2023-07-31T06:02:20;4.60;;;0.80;;
77018;SDS011;66044;53.142;17.962;2023-07-31T06:04:46;4.80;;;0.80;;
77018;SDS011;66044;53.142;17.962;2023-07-31T06:07:13;4.60;;;0.90;;
77018;SDS011;66044;53.142;17.962;2023-07-31T06:09:39;3.20;;;0.70;;
77018;SDS011;66044;53.142;17.962;2023-07-31T06:12:06;4.30;;;0.90;;
77018;SDS011;66044;53.142;17.962;2023-07-31T06:14:33;4.10;;;1.00;;
77018;SDS011;66044;53.142;17.962;2023-07-31T06:16:59;4.90;;;1.10;;
77018;SDS011;66044;53.142;17.962;2023-07-31T06:19:26;5.00;;;0.90;;
77018;SDS011;66044;53.142;17.962;2023-07-31T06:21:52;3.40;;;0.80;;
77018;SDS011;66044;53.142;17.962;2023-07-31T06:24:18;4.90;;;1.00;;
77018;SDS011;66044;53.142;17.962;2023-07-31T06:26:46;4.10;;;0.80;;
77018;SDS011;66044;53.142;17.962;2023-07-31T06:29:13;4.50;;;1.00;;
77018;SDS011;66044;53.142;17.962;2023-07-31T06:31:40;4.00;;;0.90;;
77018;SDS011;66044;53.142;17.962;2023-07-31T06:34:07;6.30;;;0.80;;
77018;SDS011;66044;53.142;17.962;2023-07-31T06:36:33;4.10;;;0.80;;
77018;SDS011;66044;53.142;17.962;2023-07-31T06:39:00;4.50;;;1.10;;
77018;SDS011;66044;53.142;17.962;2023-07-31T06:41:26;5.00;;;0.80;;
77018;SDS011;66044;53.142;17.962;2023-07-31T06:43:53;5.70;;;0.80;;
77018;SDS011;66044;53.142;17.962;2023-07-31T06:46:19;4.90;;;0.60;;
77018;SDS011;66044;53.142;17.962;2023-07-31T06:48:45;4.80;;;0.70;;
77018;SDS011;66044;53.142;17.962;2023-07-31T06:51:12;4.20;;;0.70;;
77018;SDS011;66044;53.142;17.962;2023-07-31T06:53:38;3.30;;;0.60;;
77018;SDS011;66044;53.142;17.962;2023-07-31T06:56:05;4.60;;;0.70;;
77018;SDS011;66044;53.142;17.962;2023-07-31T06:58:31;3.50;;;0.60;;
77018;SDS011;66044;53.142;17.962;2023-07-31T07:00:58;5.90;;;0.70;;
77018;SDS011;66044;53.142;17.962;2023-07-31T07:03:24;4.10;;;0.70;;
77018;SDS011;66044;53.142;17.962;2023-07-31T07:05:51;4.10;;;0.90;;
77018;SDS011;66044;53.142;17.962;2023-07-31T07:08:17;5.40;;;0.90;;
77018;SDS011;66044;53.142;17.962;2023-07-31T07:10:44;5.70;;;1.20;;
77018;SDS011;66044;53.142;17.962;2023-07-31T07:13:10;4.80;;;0.60;;
77018;SDS011;66044;53.142;17.962;2023-07-31T07:15:38;4.30;;;0.60;;
77018;SDS011;66044;53.142;17.962;2023-07-31T07:18:05;4.60;;;0.80;;
77018;SDS011;66044;53.142;17.962;2023-07-31T07:20:32;5.20;;;0.90;;
77018;SDS011;66044;53.142;17.962;2023-07-31T07:22:58;4.00;;;0.80;;
77018;SDS011;66044;53.142;17.962;2023-07-31T07:25:25;4.30;;;0.80;;
77018;SDS011;66044;53.142;17.962;2023-07-31T07:27:51;3.90;;;0.90;;
77018;SDS011;66044;53.142;17.962;2023-07-31T07:30:18;4.50;;;0.80;;
77018;SDS011;66044;53.142;17.962;2023-07-31T07:32:46;3.80;;;0.90;;
77018;SDS011;66044;53.142;17.962;2023-07-31T07:35:12;3.60;;;0.90;;
77018;SDS011;66044;53.142;17.962;2023-07-31T07:37:38;5.10;;;1.00;;
77018;SDS011;66044;53.142;17.962;2023-07-31T07:40:05;4.20;;;0.90;;
77018;SDS011;66044;53.142;17.962;2023-07-31T07:42:33;4.00;;;0.70;;
77018;SDS011;66044;53.142;17.962;2023-07-31T07:44:59;5.10;;;1.00;;
77018;SDS011;66044;53.142;17.962;2023-07-31T07:47:25;4.70;;;0.90;;
77018;SDS011;66044;53.142;17.962;2023-07-31T07:49:52;3.70;;;0.80;;
77018;SDS011;66044;53.142;17.962;2023-07-31T07:52:18;4.30;;;1.00;;
77018;SDS011;66044;53.142;17.962;2023-07-31T07:54:45;3.50;;;0.70;;
77018;SDS011;66044;53.142;17.962;2023-07-31T07:57:12;5.40;;;1.00;;
77018;SDS011;66044;53.142;17.962;2023-07-31T07:59:38;5.50;;;1.50;;
77018;SDS011;66044;53.142;17.962;2023-07-31T08:02:05;5.20;;;1.30;;
77018;SDS011;66044;53.142;17.962;2023-07-31T08:04:31;4.00;;;0.90;;
77018;SDS011;66044;53.142;17.962;2023-07-31T08:06:58;5.40;;;1.20;;
77018;SDS011;66044;53.142;17.962;2023-07-31T08:09:24;6.50;;;1.60;;
77018;SDS011;66044;53.142;17.962;2023-07-31T08:11:51;5.60;;;1.30;;
77018;SDS011;66044;53.142;17.962;2023-07-31T08:14:17;6.30;;;1.10;;
77018;SDS011;66044;53.142;17.962;2023-07-31T08:16:44;5.10;;;1.00;;
77018;SDS011;66044;53.142;17.962;2023-07-31T08:19:10;5.50;;;1.40;;
77018;SDS011;66044;53.142;17.962;2023-07-31T08:21:37;5.90;;;1.70;;
77018;SDS011;66044;53.142;17.962;2023-07-31T08:24:04;6.20;;;1.30;;
77018;SDS011;66044;53.142;17.962;2023-07-31T08:26:31;4.90;;;1.20;;
77018;SDS011;66044;53.142;17.962;2023-07-31T08:28:57;7.80;;;1.20;;
77018;SDS011;66044;53.142;17.962;2023-07-31T08:31:24;4.60;;;1.30;;
77018;SDS011;66044;53.142;17.962;2023-07-31T08:33:50;5.50;;;1.00;;
77018;SDS011;66044;53.142;17.962;2023-07-31T08:36:17;4.90;;;0.80;;
77018;SDS011;66044;53.142;17.962;2023-07-31T08:38:45;5.80;;;1.30;;
77018;SDS011;66044;53.142;17.962;2023-07-31T08:41:11;6.30;;;1.80;;
77018;SDS011;66044;53.142;17.962;2023-07-31T08:43:39;5.80;;;1.40;;
77018;SDS011;66044;53.142;17.962;2023-07-31T08:46:07;5.60;;;1.40;;
77018;SDS011;66044;53.142;17.962;2023-07-31T08:48:34;4.60;;;1.00;;
77018;SDS011;66044;53.142;17.962;2023-07-31T08:51:04;3.90;;;0.80;;
77018;SDS011;66044;53.142;17.962;2023-07-31T08:53:30;5.30;;;0.80;;
77018;SDS011;66044;53.142;17.962;2023-07-31T08:55:57;5.20;;;0.80;;
77018;SDS011;66044;53.142;17.962;2023-07-31T08:58:25;5.00;;;1.00;;
77018;SDS011;66044;53.142;17.962;2023-07-31T09:00:57;4.50;;;0.90;;
77018;SDS011;66044;53.142;17.962;2023-07-31T09:03:25;4.50;;;0.80;;
77018;SDS011;66044;53.142;17.962;2023-07-31T09:05:53;4.70;;;0.90;;
77018;SDS011;66044;53.142;17.962;2023-07-31T09:08:21;5.70;;;0.90;;
77018;SDS011;66044;53.142;17.962;2023-07-31T09:10:48;4.20;;;0.70;;
77018;SDS011;66044;53.142;17.962;2023-07-31T09:13:18;5.50;;;1.10;;
77018;SDS011;66044;53.142;17.962;2023-07-31T09:15:44;4.90;;;1.00;;
77018;SDS011;66044;53.142;17.962;2023-07-31T09:18:12;5.40;;;1.00;;
77018;SDS011;66044;53.142;17.962;2023-07-31T09:20:40;5.60;;;1.20;;
77018;SDS011;66044;53.142;17.962;2023-07-31T09:23:10;4.60;;;1.10;;
77018;SDS011;66044;53.142;17.962;2023-07-31T09:25:39;5.60;;;1.20;;
77018;SDS011;66044;53.142;17.962;2023-07-31T09:28:09;5.30;;;1.10;;
77018;SDS011;66044;53.142;17.962;2023-07-31T09:30:44;5.20;;;1.00;;
77018;SDS011;66044;53.142;17.962;2023-07-31T09:33:11;5.10;;;1.10;;
77018;SDS011;66044;53.142;17.962;2023-07-31T09:35:37;3.90;;;0.90;;
77018;SDS011;66044;53.142;17.962;2023-07-31T09:38:05;5.50;;;1.00;;
77018;SDS011;66044;53.142;17.962;2023-07-31T09:40:34;5.70;;;1.20;;
77018;SDS011;66044;53.142;17.962;2023-07-31T09:43:03;4.10;;;1.00;;
77018;SDS011;66044;53.142;17.962;2023-07-31T09:45:36;4.40;;;0.90;;
77018;SDS011;66044;53.142;17.962;2023-07-31T09:48:08;5.80;;;1.20;;
77018;SDS011;66044;53.142;17.962;2023-07-31T09:50:40;4.50;;;1.10;;
77018;SDS011;66044;53.142;17.962;2023-07-31T09:53:10;5.00;;;1.00;;
77018;SDS011;66044;53.142;17.962;2023-07-31T09:55:39;5.60;;;1.30;;
77018;SDS011;66044;53.142;17.962;2023-07-31T09:58:11;6.40;;;1.80;;
77018;SDS011;66044;53.142;17.962;2023-07-31T10:00:39;8.20;;;2.20;;
77018;SDS011;66044;53.142;17.962;2023-07-31T10:03:07;6.00;;;1.50;;
77018;SDS011;66044;53.142;17.962;2023-07-31T10:05:38;7.30;;;1.50;;
77018;SDS011;66044;53.142;17.962;2023-07-31T10:08:09;5.80;;;1.20;;
77018;SDS011;66044;53.142;17.962;2023-07-31T10:10:37;6.20;;;1.40;;
77018;SDS011;66044;53.142;17.962;2023-07-31T10:13:07;5.70;;;1.40;;
77018;SDS011;66044;53.142;17.962;2023-07-31T10:15:35;5.40;;;1.40;;
77018;SDS011;66044;53.142;17.962;2023-07-31T10:18:02;5.20;;;1.40;;
77018;SDS011;66044;53.142;17.962;2023-07-31T10:20:32;5.30;;;1.60;;
77018;SDS011;66044;53.142;17.962;2023-07-31T10:23:00;5.80;;;1.30;;
77018;SDS011;66044;53.142;17.962;2023-07-31T10:25:28;5.90;;;1.60;;
77018;SDS011;66044;53.142;17.962;2023-07-31T10:27:55;5.30;;;1.40;;
77018;SDS011;66044;53.142;17.962;2023-07-31T10:30:27;5.80;;;1.50;;
77018;SDS011;66044;53.142;17.962;2023-07-31T10:32:56;5.00;;;1.50;;
77018;SDS011;66044;53.142;17.962;2023-07-31T10:35:24;7.40;;;1.30;;
77018;SDS011;66044;53.142;17.962;2023-07-31T10:37:50;5.30;;;1.60;;
77018;SDS011;66044;53.142;17.962;2023-07-31T10:40:19;6.50;;;1.40;;
77018;SDS011;66044;53.142;17.962;2023-07-31T10:42:53;5.80;;;1.40;;
77018;SDS011;66044;53.142;17.962;2023-07-31T10:48:20;6.20;;;1.70;;
77018;SDS011;66044;53.142;17.962;2023-07-31T10:50:48;6.60;;;1.70;;
77018;SDS011;66044;53.142;17.962;2023-07-31T10:53:26;5.90;;;1.60;;
77018;SDS011;66044;53.142;17.962;2023-07-31T10:56:02;5.40;;;1.60;;
77018;SDS011;66044;53.142;17.962;2023-07-31T10:58:33;4.80;;;1.20;;
77018;SDS011;66044;53.142;17.962;2023-07-31T11:01:02;5.30;;;1.50;;
77018;SDS011;66044;53.142;17.962;2023-07-31T11:06:13;5.70;;;1.50;;
77018;SDS011;66044;53.142;17.962;2023-07-31T11:08:43;4.60;;;1.10;;
77018;SDS011;66044;53.142;17.962;2023-07-31T11:11:19;5.00;;;1.10;;
77018;SDS011;66044;53.142;17.962;2023-07-31T11:13:47;4.50;;;1.10;;
77018;SDS011;66044;53.142;17.962;2023-07-31T11:16:15;5.20;;;0.90;;
77018;SDS011;66044;53.142;17.962;2023-07-31T11:18:44;8.20;;;1.20;;
77018;SDS011;66044;53.142;17.962;2023-07-31T11:21:12;4.80;;;1.00;;
77018;SDS011;66044;53.142;17.962;2023-07-31T11:23:40;4.60;;;1.00;;
77018;SDS011;66044;53.142;17.962;2023-07-31T11:26:07;5.40;;;1.30;;
77018;SDS011;66044;53.142;17.962;2023-07-31T11:28:34;5.10;;;1.30;;
77018;SDS011;66044;53.142;17.962;2023-07-31T11:31:02;5.20;;;1.10;;
77018;SDS011;66044;53.142;17.962;2023-07-31T11:33:29;6.30;;;1.30;;
77018;SDS011;66044;53.142;17.962;2023-07-31T11:35:56;6.10;;;1.30;;
77018;SDS011;66044;53.142;17.962;2023-07-31T11:38:29;5.70;;;1.30;;
77018;SDS011;66044;53.142;17.962;2023-07-31T11:41:01;7.10;;;1.30;;
77018;SDS011;66044;53.142;17.962;2023-07-31T11:43:30;5.40;;;1.60;;
77018;SDS011;66044;53.142;17.962;2023-07-31T11:46:00;4.60;;;1.40;;
77018;SDS011;66044;53.142;17.962;2023-07-31T11:48:32;6.70;;;1.40;;
77018;SDS011;66044;53.142;17.962;2023-07-31T11:51:04;4.60;;;1.20;;
77018;SDS011;66044;53.142;17.962;2023-07-31T11:53:48;4.70;;;1.10;;
77018;SDS011;66044;53.142;17.962;2023-07-31T11:56:23;6.00;;;1.50;;
77018;SDS011;66044;53.142;17.962;2023-07-31T11:58:58;4.80;;;1.30;;
77018;SDS011;66044;53.142;17.962;2023-07-31T12:01:26;5.90;;;1.20;;
77018;SDS011;66044;53.142;17.962;2023-07-31T12:03:54;4.50;;;1.10;;
77018;SDS011;66044;53.142;17.962;2023-07-31T12:06:31;3.00;;;0.80;;
77018;SDS011;66044;53.142;17.962;2023-07-31T12:09:03;5.10;;;1.00;;
77018;SDS011;66044;53.142;17.962;2023-07-31T12:11:31;3.30;;;0.90;;
77018;SDS011;66044;53.142;17.962;2023-07-31T12:14:08;4.00;;;0.80;;
77018;SDS011;66044;53.142;17.962;2023-07-31T12:16:54;4.30;;;0.90;;
77018;SDS011;66044;53.142;17.962;2023-07-31T12:19:22;3.80;;;0.80;;
77018;SDS011;66044;53.142;17.962;2023-07-31T12:21:49;4.70;;;1.50;;
77018;SDS011;66044;53.142;17.962;2023-07-31T12:24:17;4.40;;;1.10;;
77018;SDS011;66044;53.142;17.962;2023-07-31T12:26:45;4.20;;;1.00;;
77018;SDS011;66044;53.142;17.962;2023-07-31T12:29:13;3.70;;;0.70;;
77018;SDS011;66044;53.142;17.962;2023-07-31T12:31:40;4.10;;;0.90;;
77018;SDS011;66044;53.142;17.962;2023-07-31T12:34:17;3.70;;;0.90;;
77018;SDS011;66044;53.142;17.962;2023-07-31T12:36:46;4.50;;;0.90;;
77018;SDS011;66044;53.142;17.962;2023-07-31T12:39:16;2.90;;;0.80;;
77018;SDS011;66044;53.142;17.962;2023-07-31T12:41:43;4.50;;;1.20;;
77018;SDS011;66044;53.142;17.962;2023-07-31T12:44:09;4.40;;;1.10;;
77018;SDS011;66044;53.142;17.962;2023-07-31T12:46:36;4.40;;;1.00;;
77018;SDS011;66044;53.142;17.962;2023-07-31T12:49:03;4.30;;;1.00;;
77018;SDS011;66044;53.142;17.962;2023-07-31T12:51:30;3.60;;;1.10;;
77018;SDS011;66044;53.142;17.962;2023-07-31T12:53:56;4.40;;;1.00;;
77018;SDS011;66044;53.142;17.962;2023-07-31T12:56:22;3.90;;;0.90;;
77018;SDS011;66044;53.142;17.962;2023-07-31T12:58:49;3.80;;;1.30;;
77018;SDS011;66044;53.142;17.962;2023-07-31T13:01:15;4.20;;;1.10;;
77018;SDS011;66044;53.142;17.962;2023-07-31T13:03:42;4.60;;;1.20;;
77018;SDS011;66044;53.142;17.962;2023-07-31T13:06:08;3.60;;;0.90;;
77018;SDS011;66044;53.142;17.962;2023-07-31T13:08:35;4.60;;;1.10;;
77018;SDS011;66044;53.142;17.962;2023-07-31T13:11:01;4.20;;;1.20;;
77018;SDS011;66044;53.142;17.962;2023-07-31T13:13:27;4.10;;;1.00;;
77018;SDS011;66044;53.142;17.962;2023-07-31T13:15:55;5.90;;;1.20;;
77018;SDS011;66044;53.142;17.962;2023-07-31T13:18:22;4.10;;;1.20;;
77018;SDS011;66044;53.142;17.962;2023-07-31T13:20:48;5.70;;;1.30;;
77018;SDS011;66044;53.142;17.962;2023-07-31T13:23:14;4.00;;;1.20;;
77018;SDS011;66044;53.142;17.962;2023-07-31T13:25:41;4.70;;;1.20;;
77018;SDS011;66044;53.142;17.962;2023-07-31T13:28:07;3.40;;;1.10;;
77018;SDS011;66044;53.142;17.962;2023-07-31T13:30:34;3.30;;;0.90;;
77018;SDS011;66044;53.142;17.962;2023-07-31T13:33:00;4.70;;;1.20;;
77018;SDS011;66044;53.142;17.962;2023-07-31T13:35:27;4.20;;;1.10;;
77018;SDS011;66044;53.142;17.962;2023-07-31T13:37:53;5.40;;;1.20;;
77018;SDS011;66044;53.142;17.962;2023-07-31T13:40:20;5.60;;;1.20;;
77018;SDS011;66044;53.142;17.962;2023-07-31T13:42:46;4.30;;;1.10;;
77018;SDS011;66044;53.142;17.962;2023-07-31T13:45:14;5.40;;;1.50;;
77018;SDS011;66044;53.142;17.962;2023-07-31T13:47:40;5.20;;;1.30;;
77018;SDS011;66044;53.142;17.962;2023-07-31T13:50:07;4.50;;;1.30;;
77018;SDS011;66044;53.142;17.962;2023-07-31T13:52:34;7.00;;;1.20;;
77018;SDS011;66044;53.142;17.962;2023-07-31T13:55:00;4.80;;;1.00;;
77018;SDS011;66044;53.142;17.962;2023-07-31T13:57:27;5.20;;;1.30;;
77018;SDS011;66044;53.142;17.962;2023-07-31T13:59:53;4.60;;;1.00;;
77018;SDS011;66044;53.142;17.962;2023-07-31T14:02:20;4.50;;;1.20;;
77018;SDS011;66044;53.142;17.962;2023-07-31T14:04:46;6.20;;;1.70;;
77018;SDS011;66044;53.142;17.962;2023-07-31T14:07:13;4.60;;;1.30;;
77018;SDS011;66044;53.142;17.962;2023-07-31T14:09:39;4.30;;;1.20;;
77018;SDS011;66044;53.142;17.962;2023-07-31T14:12:06;4.60;;;1.20;;
77018;SDS011;66044;53.142;17.962;2023-07-31T14:14:32;4.10;;;1.20;;
77018;SDS011;66044;53.142;17.962;2023-07-31T14:17:00;4.70;;;1.40;;
77018;SDS011;66044;53.142;17.962;2023-07-31T14:19:26;3.30;;;0.80;;
77018;SDS011;66044;53.142;17.962;2023-07-31T14:21:53;4.60;;;1.10;;
77018;SDS011;66044;53.142;17.962;2023-07-31T14:24:19;5.00;;;1.10;;
77018;SDS011;66044;53.142;17.962;2023-07-31T14:26:46;3.30;;;0.80;;
77018;SDS011;66044;53.142;17.962;2023-07-31T14:29:12;5.00;;;1.30;;
77018;SDS011;66044;53.142;17.962;2023-07-31T14:31:38;3.70;;;0.90;;
77018;SDS011;66044;53.142;17.962;2023-07-31T14:34:05;3.50;;;1.10;;
77018;SDS011;66044;53.142;17.962;2023-07-31T14:36:31;5.50;;;1.30;;
77018;SDS011;66044;53.142;17.962;2023-07-31T14:38:58;5.20;;;1.90;;
77018;SDS011;66044;53.142;17.962;2023-07-31T14:41:24;5.30;;;1.40;;
77018;SDS011;66044;53.142;17.962;2023-07-31T14:43:51;3.70;;;1.10;;